sensor_id;sensor_type;location;lat;lon;timestamp;temperature;humidity
2435;DHT22;1228;51.022;6.764;2024-02-28T00:02:13;1.60;99.90
2435;DHT22;1228;51.022;6.764;2024-02-28T00:04:40;1.60;99.90
2435;DHT22;1228;51.022;6.764;2024-02-28T00:07:07;1.60;99.90
2435;DHT22;1228;51.022;6.764;2024-02-28T00:09:32;1.60;99.90
2435;DHT22;1228;51.022;6.764;2024-02-28T00:11:58;1.60;99.90
2435;DHT22;1228;51.022;6.764;2024-02-28T00:14:23;1.50;99.90
2435;DHT22;1228;51.022;6.764;2024-02-28T00:16:49;1.50;99.90
2435;DHT22;1228;51.022;6.764;2024-02-28T00:19:16;1.50;99.90
2435;DHT22;1228;51.022;6.764;2024-02-28T00:21:42;1.50;99.90
2435;DHT22;1228;51.022;6.764;2024-02-28T00:24:08;1.60;99.90
2435;DHT22;1228;51.022;6.764;2024-02-28T00:26:34;1.60;99.90
2435;DHT22;1228;51.022;6.764;2024-02-28T00:29:00;1.60;99.90
2435;DHT22;1228;51.022;6.764;2024-02-28T00:31:26;1.60;99.90
2435;DHT22;1228;51.022;6.764;2024-02-28T00:33:51;1.60;99.90
2435;DHT22;1228;51.022;6.764;2024-02-28T00:36:17;1.70;99.90
2435;DHT22;1228;51.022;6.764;2024-02-28T00:38:43;1.60;99.90
2435;DHT22;1228;51.022;6.764;2024-02-28T00:41:09;1.60;99.90
2435;DHT22;1228;51.022;6.764;2024-02-28T00:43:35;1.50;99.90
2435;DHT22;1228;51.022;6.764;2024-02-28T00:46:00;1.40;99.90
2435;DHT22;1228;51.022;6.764;2024-02-28T00:48:26;1.40;99.90
2435;DHT22;1228;51.022;6.764;2024-02-28T00:50:54;1.40;99.90
2435;DHT22;1228;51.022;6.764;2024-02-28T00:53:20;1.40;99.90
2435;DHT22;1228;51.022;6.764;2024-02-28T00:55:46;1.30;99.90
2435;DHT22;1228;51.022;6.764;2024-02-28T00:58:11;1.30;99.90
2435;DHT22;1228;51.022;6.764;2024-02-28T01:00:37;1.20;99.90
2435;DHT22;1228;51.022;6.764;2024-02-28T01:03:03;1.20;99.90
2435;DHT22;1228;51.022;6.764;2024-02-28T01:05:34;1.20;99.90
2435;DHT22;1228;51.022;6.764;2024-02-28T01:08:00;1.20;99.90
2435;DHT22;1228;51.022;6.764;2024-02-28T01:10:26;1.10;99.90
2435;DHT22;1228;51.022;6.764;2024-02-28T01:12:51;1.00;99.90
2435;DHT22;1228;51.022;6.764;2024-02-28T01:15:17;1.00;99.90
2435;DHT22;1228;51.022;6.764;2024-02-28T01:17:42;0.90;99.90
2435;DHT22;1228;51.022;6.764;2024-02-28T01:20:08;0.90;99.90
2435;DHT22;1228;51.022;6.764;2024-02-28T01:22:34;0.80;99.90
2435;DHT22;1228;51.022;6.764;2024-02-28T01:25:01;0.80;99.90
2435;DHT22;1228;51.022;6.764;2024-02-28T01:27:28;0.70;99.90
2435;DHT22;1228;51.022;6.764;2024-02-28T01:29:53;0.70;99.90
2435;DHT22;1228;51.022;6.764;2024-02-28T01:32:19;0.70;99.90
2435;DHT22;1228;51.022;6.764;2024-02-28T01:34:45;0.80;99.90
2435;DHT22;1228;51.022;6.764;2024-02-28T01:37:11;0.70;99.90
2435;DHT22;1228;51.022;6.764;2024-02-28T01:39:37;0.70;99.90
2435;DHT22;1228;51.022;6.764;2024-02-28T01:42:03;0.70;99.90
2435;DHT22;1228;51.022;6.764;2024-02-28T01:44:28;0.70;99.90
2435;DHT22;1228;51.022;6.764;2024-02-28T01:46:54;0.60;99.90
2435;DHT22;1228;51.022;6.764;2024-02-28T01:49:22;0.60;99.90
2435;DHT22;1228;51.022;6.764;2024-02-28T01:51:49;0.60;99.90
2435;DHT22;1228;51.022;6.764;2024-02-28T01:54:16;0.60;99.90
2435;DHT22;1228;51.022;6.764;2024-02-28T01:56:43;0.60;99.90
2435;DHT22;1228;51.022;6.764;2024-02-28T01:59:10;0.50;99.90
2435;DHT22;1228;51.022;6.764;2024-02-28T02:01:37;0.60;99.90
2435;DHT22;1228;51.022;6.764;2024-02-28T02:04:03;0.60;99.90
2435;DHT22;1228;51.022;6.764;2024-02-28T02:06:30;0.60;99.90
2435;DHT22;1228;51.022;6.764;2024-02-28T02:08:56;0.50;99.90
2435;DHT22;1228;51.022;6.764;2024-02-28T02:11:21;0.60;99.90
2435;DHT22;1228;51.022;6.764;2024-02-28T02:13:51;0.70;99.90
2435;DHT22;1228;51.022;6.764;2024-02-28T02:16:18;0.80;99.90
2435;DHT22;1228;51.022;6.764;2024-02-28T02:18:45;0.90;99.90
2435;DHT22;1228;51.022;6.764;2024-02-28T02:21:13;1.10;99.90
2435;DHT22;1228;51.022;6.764;2024-02-28T02:23:41;1.30;99.90
2435;DHT22;1228;51.022;6.764;2024-02-28T02:26:07;1.50;99.90
2435;DHT22;1228;51.022;6.764;2024-02-28T02:28:33;1.70;99.90
2435;DHT22;1228;51.022;6.764;2024-02-28T02:30:59;1.90;99.90
2435;DHT22;1228;51.022;6.764;2024-02-28T02:33:24;2.00;99.90
2435;DHT22;1228;51.022;6.764;2024-02-28T02:35:51;2.10;99.90
2435;DHT22;1228;51.022;6.764;2024-02-28T02:38:17;2.20;99.90
2435;DHT22;1228;51.022;6.764;2024-02-28T02:40:42;2.30;99.90
2435;DHT22;1228;51.022;6.764;2024-02-28T02:43:08;2.40;99.90
2435;DHT22;1228;51.022;6.764;2024-02-28T02:45:34;2.50;99.90
2435;DHT22;1228;51.022;6.764;2024-02-28T02:48:00;2.60;99.90
2435;DHT22;1228;51.022;6.764;2024-02-28T02:50:26;2.70;99.90
2435;DHT22;1228;51.022;6.764;2024-02-28T02:52:51;2.70;99.90
2435;DHT22;1228;51.022;6.764;2024-02-28T02:55:17;2.70;99.90
2435;DHT22;1228;51.022;6.764;2024-02-28T02:57:42;2.80;99.90
2435;DHT22;1228;51.022;6.764;2024-02-28T03:00:09;2.90;99.90
2435;DHT22;1228;51.022;6.764;2024-02-28T03:02:35;3.00;99.90
2435;DHT22;1228;51.022;6.764;2024-02-28T03:05:04;3.00;99.90
2435;DHT22;1228;51.022;6.764;2024-02-28T03:07:29;3.20;99.90
2435;DHT22;1228;51.022;6.764;2024-02-28T03:09:55;3.30;99.90
2435;DHT22;1228;51.022;6.764;2024-02-28T03:12:21;3.30;99.90
2435;DHT22;1228;51.022;6.764;2024-02-28T03:14:50;3.30;99.90
2435;DHT22;1228;51.022;6.764;2024-02-28T03:17:15;3.30;99.90
2435;DHT22;1228;51.022;6.764;2024-02-28T03:19:44;3.40;99.90
2435;DHT22;1228;51.022;6.764;2024-02-28T03:22:09;3.40;99.90
2435;DHT22;1228;51.022;6.764;2024-02-28T03:24:35;3.50;99.90
2435;DHT22;1228;51.022;6.764;2024-02-28T03:27:01;3.50;99.90
2435;DHT22;1228;51.022;6.764;2024-02-28T03:29:27;3.50;99.90
2435;DHT22;1228;51.022;6.764;2024-02-28T03:31:53;3.60;99.90
2435;DHT22;1228;51.022;6.764;2024-02-28T03:34:18;3.60;99.90
2435;DHT22;1228;51.022;6.764;2024-02-28T03:36:44;3.60;99.90
2435;DHT22;1228;51.022;6.764;2024-02-28T03:39:10;3.60;99.90
2435;DHT22;1228;51.022;6.764;2024-02-28T03:41:36;3.70;99.90
2435;DHT22;1228;51.022;6.764;2024-02-28T03:44:01;3.70;99.90
2435;DHT22;1228;51.022;6.764;2024-02-28T03:46:27;3.70;99.90
2435;DHT22;1228;51.022;6.764;2024-02-28T03:48:53;3.80;99.90
2435;DHT22;1228;51.022;6.764;2024-02-28T03:51:18;3.80;99.90
2435;DHT22;1228;51.022;6.764;2024-02-28T03:53:44;3.80;99.90
2435;DHT22;1228;51.022;6.764;2024-02-28T03:56:09;3.80;99.90
2435;DHT22;1228;51.022;6.764;2024-02-28T03:58:35;3.80;99.90
2435;DHT22;1228;51.022;6.764;2024-02-28T04:01:01;3.80;99.90
2435;DHT22;1228;51.022;6.764;2024-02-28T04:03:26;3.80;99.90
2435;DHT22;1228;51.022;6.764;2024-02-28T04:05:52;3.80;99.90
2435;DHT22;1228;51.022;6.764;2024-02-28T04:08:17;3.80;99.90
2435;DHT22;1228;51.022;6.764;2024-02-28T04:10:43;3.80;99.90
2435;DHT22;1228;51.022;6.764;2024-02-28T04:13:09;3.80;99.90
2435;DHT22;1228;51.022;6.764;2024-02-28T04:15:35;3.80;99.90
2435;DHT22;1228;51.022;6.764;2024-02-28T04:18:00;3.80;99.90
2435;DHT22;1228;51.022;6.764;2024-02-28T04:20:26;3.80;99.90
2435;DHT22;1228;51.022;6.764;2024-02-28T04:22:52;3.80;99.90
2435;DHT22;1228;51.022;6.764;2024-02-28T04:25:18;3.80;99.90
2435;DHT22;1228;51.022;6.764;2024-02-28T04:27:44;3.70;99.90
2435;DHT22;1228;51.022;6.764;2024-02-28T04:30:10;3.70;99.90
2435;DHT22;1228;51.022;6.764;2024-02-28T04:32:36;3.80;99.90
2435;DHT22;1228;51.022;6.764;2024-02-28T04:35:03;3.80;99.90
2435;DHT22;1228;51.022;6.764;2024-02-28T04:37:29;3.80;99.90
2435;DHT22;1228;51.022;6.764;2024-02-28T04:39:54;3.80;99.90
2435;DHT22;1228;51.022;6.764;2024-02-28T04:42:20;3.90;99.90
2435;DHT22;1228;51.022;6.764;2024-02-28T04:44:45;3.90;99.90
2435;DHT22;1228;51.022;6.764;2024-02-28T04:47:11;3.80;99.90
2435;DHT22;1228;51.022;6.764;2024-02-28T04:49:38;3.90;99.90
2435;DHT22;1228;51.022;6.764;2024-02-28T04:52:06;3.90;99.90
2435;DHT22;1228;51.022;6.764;2024-02-28T04:54:32;3.90;99.90
2435;DHT22;1228;51.022;6.764;2024-02-28T04:56:58;3.80;99.90
2435;DHT22;1228;51.022;6.764;2024-02-28T04:59:23;3.80;99.90
2435;DHT22;1228;51.022;6.764;2024-02-28T05:01:49;3.70;99.90
2435;DHT22;1228;51.022;6.764;2024-02-28T05:04:14;3.60;99.90
2435;DHT22;1228;51.022;6.764;2024-02-28T05:06:40;3.50;99.90
2435;DHT22;1228;51.022;6.764;2024-02-28T05:09:06;3.40;99.90
2435;DHT22;1228;51.022;6.764;2024-02-28T05:11:31;3.30;99.90
2435;DHT22;1228;51.022;6.764;2024-02-28T05:13:57;3.10;99.90
2435;DHT22;1228;51.022;6.764;2024-02-28T05:16:23;3.00;99.90
2435;DHT22;1228;51.022;6.764;2024-02-28T05:18:48;3.00;99.90
2435;DHT22;1228;51.022;6.764;2024-02-28T05:21:14;2.90;99.90
2435;DHT22;1228;51.022;6.764;2024-02-28T05:23:40;2.90;99.90
2435;DHT22;1228;51.022;6.764;2024-02-28T05:26:06;2.90;99.90
2435;DHT22;1228;51.022;6.764;2024-02-28T05:28:35;2.90;99.90
2435;DHT22;1228;51.022;6.764;2024-02-28T05:31:20;2.90;99.90
2435;DHT22;1228;51.022;6.764;2024-02-28T05:33:46;3.00;99.90
2435;DHT22;1228;51.022;6.764;2024-02-28T05:36:12;2.90;99.90
2435;DHT22;1228;51.022;6.764;2024-02-28T05:38:37;2.90;99.90
2435;DHT22;1228;51.022;6.764;2024-02-28T05:41:03;3.00;99.90
2435;DHT22;1228;51.022;6.764;2024-02-28T05:43:28;3.00;99.90
2435;DHT22;1228;51.022;6.764;2024-02-28T05:45:54;3.00;99.90
2435;DHT22;1228;51.022;6.764;2024-02-28T05:48:20;3.10;99.90
2435;DHT22;1228;51.022;6.764;2024-02-28T05:50:45;3.10;99.90
2435;DHT22;1228;51.022;6.764;2024-02-28T05:53:11;3.10;99.90
2435;DHT22;1228;51.022;6.764;2024-02-28T05:55:37;3.20;99.90
2435;DHT22;1228;51.022;6.764;2024-02-28T05:58:02;3.20;99.90
2435;DHT22;1228;51.022;6.764;2024-02-28T06:00:28;3.20;99.90
2435;DHT22;1228;51.022;6.764;2024-02-28T06:02:54;3.20;99.90
2435;DHT22;1228;51.022;6.764;2024-02-28T06:05:20;3.10;99.90
2435;DHT22;1228;51.022;6.764;2024-02-28T06:07:45;3.10;99.90
2435;DHT22;1228;51.022;6.764;2024-02-28T06:10:11;3.10;99.90
2435;DHT22;1228;51.022;6.764;2024-02-28T06:12:37;3.10;99.90
2435;DHT22;1228;51.022;6.764;2024-02-28T06:15:04;3.10;99.90
2435;DHT22;1228;51.022;6.764;2024-02-28T06:17:29;3.10;99.90
2435;DHT22;1228;51.022;6.764;2024-02-28T06:19:55;3.10;99.90
2435;DHT22;1228;51.022;6.764;2024-02-28T06:22:21;3.10;99.90
2435;DHT22;1228;51.022;6.764;2024-02-28T06:24:46;3.00;99.90
2435;DHT22;1228;51.022;6.764;2024-02-28T06:27:12;3.10;99.90
2435;DHT22;1228;51.022;6.764;2024-02-28T06:29:42;3.10;99.90
2435;DHT22;1228;51.022;6.764;2024-02-28T06:32:07;3.10;99.90
2435;DHT22;1228;51.022;6.764;2024-02-28T06:34:33;3.10;99.90
2435;DHT22;1228;51.022;6.764;2024-02-28T06:36:59;3.10;99.90
2435;DHT22;1228;51.022;6.764;2024-02-28T06:39:24;3.10;99.90
2435;DHT22;1228;51.022;6.764;2024-02-28T06:41:50;3.10;99.90
2435;DHT22;1228;51.022;6.764;2024-02-28T06:44:18;3.10;99.90
2435;DHT22;1228;51.022;6.764;2024-02-28T06:46:44;3.10;99.90
2435;DHT22;1228;51.022;6.764;2024-02-28T06:49:09;3.20;99.90
2435;DHT22;1228;51.022;6.764;2024-02-28T06:51:35;3.20;99.90
2435;DHT22;1228;51.022;6.764;2024-02-28T06:54:01;3.20;99.90
2435;DHT22;1228;51.022;6.764;2024-02-28T06:56:26;3.20;99.90
2435;DHT22;1228;51.022;6.764;2024-02-28T06:58:52;3.20;99.90
2435;DHT22;1228;51.022;6.764;2024-02-28T07:01:18;3.30;99.90
2435;DHT22;1228;51.022;6.764;2024-02-28T07:03:44;3.20;99.90
2435;DHT22;1228;51.022;6.764;2024-02-28T07:06:09;3.20;99.90
2435;DHT22;1228;51.022;6.764;2024-02-28T07:08:35;3.30;99.90
2435;DHT22;1228;51.022;6.764;2024-02-28T07:11:00;3.30;99.90
2435;DHT22;1228;51.022;6.764;2024-02-28T07:13:26;3.40;99.90
2435;DHT22;1228;51.022;6.764;2024-02-28T07:15:52;3.40;99.90
2435;DHT22;1228;51.022;6.764;2024-02-28T07:18:19;3.50;99.90
2435;DHT22;1228;51.022;6.764;2024-02-28T07:20:46;3.60;99.90
2435;DHT22;1228;51.022;6.764;2024-02-28T07:23:12;3.70;99.90
2435;DHT22;1228;51.022;6.764;2024-02-28T07:25:37;3.80;99.90
2435;DHT22;1228;51.022;6.764;2024-02-28T07:28:03;3.80;99.90
2435;DHT22;1228;51.022;6.764;2024-02-28T07:30:30;3.80;99.90
2435;DHT22;1228;51.022;6.764;2024-02-28T07:32:56;3.90;99.90
2435;DHT22;1228;51.022;6.764;2024-02-28T07:35:22;3.90;99.90
2435;DHT22;1228;51.022;6.764;2024-02-28T07:37:49;3.90;99.90
2435;DHT22;1228;51.022;6.764;2024-02-28T07:40:15;4.00;99.90
2435;DHT22;1228;51.022;6.764;2024-02-28T07:42:40;4.10;99.90
2435;DHT22;1228;51.022;6.764;2024-02-28T07:45:06;4.20;99.90
2435;DHT22;1228;51.022;6.764;2024-02-28T07:47:34;4.30;99.90
2435;DHT22;1228;51.022;6.764;2024-02-28T07:49:59;4.40;99.90
2435;DHT22;1228;51.022;6.764;2024-02-28T07:52:25;4.30;99.90
2435;DHT22;1228;51.022;6.764;2024-02-28T07:54:50;4.30;99.90
2435;DHT22;1228;51.022;6.764;2024-02-28T07:57:16;4.40;99.90
2435;DHT22;1228;51.022;6.764;2024-02-28T07:59:42;4.40;99.90
2435;DHT22;1228;51.022;6.764;2024-02-28T08:02:08;4.50;99.90
2435;DHT22;1228;51.022;6.764;2024-02-28T08:04:35;4.50;99.90
2435;DHT22;1228;51.022;6.764;2024-02-28T08:07:01;4.50;99.90
2435;DHT22;1228;51.022;6.764;2024-02-28T08:09:26;4.60;99.90
2435;DHT22;1228;51.022;6.764;2024-02-28T08:11:52;4.80;99.90
2435;DHT22;1228;51.022;6.764;2024-02-28T08:14:18;4.90;99.90
2435;DHT22;1228;51.022;6.764;2024-02-28T08:16:43;5.10;99.90
2435;DHT22;1228;51.022;6.764;2024-02-28T08:19:09;5.30;99.90
2435;DHT22;1228;51.022;6.764;2024-02-28T08:21:35;5.40;99.90
2435;DHT22;1228;51.022;6.764;2024-02-28T08:24:00;5.60;99.90
2435;DHT22;1228;51.022;6.764;2024-02-28T08:26:30;5.80;99.90
2435;DHT22;1228;51.022;6.764;2024-02-28T08:28:55;5.80;99.90
2435;DHT22;1228;51.022;6.764;2024-02-28T08:31:21;5.60;99.90
2435;DHT22;1228;51.022;6.764;2024-02-28T08:33:47;5.50;99.90
2435;DHT22;1228;51.022;6.764;2024-02-28T08:36:12;5.50;99.90
2435;DHT22;1228;51.022;6.764;2024-02-28T08:38:38;5.50;99.90
2435;DHT22;1228;51.022;6.764;2024-02-28T08:41:04;5.30;99.90
2435;DHT22;1228;51.022;6.764;2024-02-28T08:43:30;5.30;99.90
2435;DHT22;1228;51.022;6.764;2024-02-28T08:45:56;5.40;99.90
2435;DHT22;1228;51.022;6.764;2024-02-28T08:48:22;5.40;99.90
2435;DHT22;1228;51.022;6.764;2024-02-28T08:50:48;5.60;99.90
2435;DHT22;1228;51.022;6.764;2024-02-28T08:53:14;5.80;99.90
2435;DHT22;1228;51.022;6.764;2024-02-28T08:55:39;6.00;99.90
2435;DHT22;1228;51.022;6.764;2024-02-28T08:58:05;6.20;99.90
2435;DHT22;1228;51.022;6.764;2024-02-28T09:00:31;6.60;99.90
2435;DHT22;1228;51.022;6.764;2024-02-28T09:02:56;6.80;99.90
2435;DHT22;1228;51.022;6.764;2024-02-28T09:05:23;7.10;99.90
2435;DHT22;1228;51.022;6.764;2024-02-28T09:07:49;7.40;99.90
2435;DHT22;1228;51.022;6.764;2024-02-28T09:10:17;7.80;99.90
2435;DHT22;1228;51.022;6.764;2024-02-28T09:12:47;8.20;99.90
2435;DHT22;1228;51.022;6.764;2024-02-28T09:15:13;8.60;99.90
2435;DHT22;1228;51.022;6.764;2024-02-28T09:17:38;8.60;99.90
2435;DHT22;1228;51.022;6.764;2024-02-28T09:20:04;8.60;99.90
2435;DHT22;1228;51.022;6.764;2024-02-28T09:22:31;8.50;99.90
2435;DHT22;1228;51.022;6.764;2024-02-28T09:24:57;8.40;99.90
2435;DHT22;1228;51.022;6.764;2024-02-28T09:27:23;8.40;99.90
2435;DHT22;1228;51.022;6.764;2024-02-28T09:29:50;8.30;99.90
2435;DHT22;1228;51.022;6.764;2024-02-28T09:32:15;8.30;99.90
2435;DHT22;1228;51.022;6.764;2024-02-28T09:34:41;8.20;99.90
2435;DHT22;1228;51.022;6.764;2024-02-28T09:37:07;8.10;99.90
2435;DHT22;1228;51.022;6.764;2024-02-28T09:39:32;8.20;99.90
2435;DHT22;1228;51.022;6.764;2024-02-28T09:41:58;8.20;99.90
2435;DHT22;1228;51.022;6.764;2024-02-28T09:44:23;8.30;99.90
2435;DHT22;1228;51.022;6.764;2024-02-28T09:46:51;8.10;99.90
2435;DHT22;1228;51.022;6.764;2024-02-28T09:49:18;8.10;99.90
2435;DHT22;1228;51.022;6.764;2024-02-28T09:51:44;8.30;99.90
2435;DHT22;1228;51.022;6.764;2024-02-28T09:54:14;8.50;99.90
2435;DHT22;1228;51.022;6.764;2024-02-28T09:56:40;8.80;99.90
2435;DHT22;1228;51.022;6.764;2024-02-28T09:59:06;9.10;99.90
2435;DHT22;1228;51.022;6.764;2024-02-28T10:01:38;9.30;99.90
2435;DHT22;1228;51.022;6.764;2024-02-28T10:04:06;9.40;99.90
2435;DHT22;1228;51.022;6.764;2024-02-28T10:06:32;9.50;99.90
2435;DHT22;1228;51.022;6.764;2024-02-28T10:08:58;9.60;99.90
2435;DHT22;1228;51.022;6.764;2024-02-28T10:11:24;9.80;99.90
2435;DHT22;1228;51.022;6.764;2024-02-28T10:13:52;10.20;99.90
2435;DHT22;1228;51.022;6.764;2024-02-28T10:16:20;10.60;99.90
2435;DHT22;1228;51.022;6.764;2024-02-28T10:18:46;11.10;99.90
2435;DHT22;1228;51.022;6.764;2024-02-28T10:21:12;11.50;99.90
2435;DHT22;1228;51.022;6.764;2024-02-28T10:23:41;11.80;99.90
2435;DHT22;1228;51.022;6.764;2024-02-28T10:26:11;12.30;99.90
2435;DHT22;1228;51.022;6.764;2024-02-28T10:28:37;12.50;99.90
2435;DHT22;1228;51.022;6.764;2024-02-28T10:31:04;12.50;99.90
2435;DHT22;1228;51.022;6.764;2024-02-28T10:33:30;12.60;99.90
2435;DHT22;1228;51.022;6.764;2024-02-28T10:35:58;12.50;99.90
2435;DHT22;1228;51.022;6.764;2024-02-28T10:38:26;12.30;99.90
2435;DHT22;1228;51.022;6.764;2024-02-28T10:40:53;12.20;99.90
2435;DHT22;1228;51.022;6.764;2024-02-28T10:43:19;12.30;99.90
2435;DHT22;1228;51.022;6.764;2024-02-28T10:45:46;12.40;99.90
2435;DHT22;1228;51.022;6.764;2024-02-28T10:48:14;12.70;99.90
2435;DHT22;1228;51.022;6.764;2024-02-28T10:50:40;13.00;99.90
2435;DHT22;1228;51.022;6.764;2024-02-28T10:53:14;13.30;99.90
2435;DHT22;1228;51.022;6.764;2024-02-28T10:55:44;13.40;99.90
2435;DHT22;1228;51.022;6.764;2024-02-28T10:58:12;13.40;99.90
2435;DHT22;1228;51.022;6.764;2024-02-28T11:00:41;13.10;99.90
2435;DHT22;1228;51.022;6.764;2024-02-28T11:03:10;12.90;99.90
2435;DHT22;1228;51.022;6.764;2024-02-28T11:05:41;12.50;99.90
2435;DHT22;1228;51.022;6.764;2024-02-28T11:08:10;12.50;99.90
2435;DHT22;1228;51.022;6.764;2024-02-28T11:10:41;12.60;99.90
2435;DHT22;1228;51.022;6.764;2024-02-28T11:13:24;12.90;99.90
2435;DHT22;1228;51.022;6.764;2024-02-28T11:15:50;12.90;99.90
2435;DHT22;1228;51.022;6.764;2024-02-28T11:18:16;13.00;99.90
2435;DHT22;1228;51.022;6.764;2024-02-28T11:20:43;13.20;99.90
2435;DHT22;1228;51.022;6.764;2024-02-28T11:23:11;13.40;99.90
2435;DHT22;1228;51.022;6.764;2024-02-28T11:25:37;13.50;99.90
2435;DHT22;1228;51.022;6.764;2024-02-28T11:28:04;13.60;99.90
2435;DHT22;1228;51.022;6.764;2024-02-28T11:30:30;13.80;99.90
2435;DHT22;1228;51.022;6.764;2024-02-28T11:32:57;13.80;99.90
2435;DHT22;1228;51.022;6.764;2024-02-28T11:35:25;13.80;99.90
2435;DHT22;1228;51.022;6.764;2024-02-28T11:37:50;13.80;99.90
2435;DHT22;1228;51.022;6.764;2024-02-28T11:40:19;14.00;99.90
2435;DHT22;1228;51.022;6.764;2024-02-28T11:42:44;14.20;99.90
2435;DHT22;1228;51.022;6.764;2024-02-28T11:45:10;14.30;99.90
2435;DHT22;1228;51.022;6.764;2024-02-28T11:47:36;14.50;99.90
2435;DHT22;1228;51.022;6.764;2024-02-28T11:50:03;14.80;99.90
2435;DHT22;1228;51.022;6.764;2024-02-28T11:52:32;15.00;99.90
2435;DHT22;1228;51.022;6.764;2024-02-28T11:54:57;15.20;99.90
2435;DHT22;1228;51.022;6.764;2024-02-28T11:57:23;15.40;99.90
2435;DHT22;1228;51.022;6.764;2024-02-28T11:59:49;15.40;99.90
2435;DHT22;1228;51.022;6.764;2024-02-28T12:02:15;15.40;99.90
2435;DHT22;1228;51.022;6.764;2024-02-28T12:04:45;15.40;99.90
2435;DHT22;1228;51.022;6.764;2024-02-28T12:07:11;15.50;99.90
2435;DHT22;1228;51.022;6.764;2024-02-28T12:09:37;15.40;99.90
2435;DHT22;1228;51.022;6.764;2024-02-28T12:12:06;15.50;99.90
2435;DHT22;1228;51.022;6.764;2024-02-28T12:14:33;15.70;99.90
2435;DHT22;1228;51.022;6.764;2024-02-28T12:17:01;16.00;99.90
2435;DHT22;1228;51.022;6.764;2024-02-28T12:19:28;15.90;99.90
2435;DHT22;1228;51.022;6.764;2024-02-28T12:21:54;15.40;99.30
2435;DHT22;1228;51.022;6.764;2024-02-28T12:24:20;15.20;99.90
2435;DHT22;1228;51.022;6.764;2024-02-28T12:26:46;15.40;99.90
2435;DHT22;1228;51.022;6.764;2024-02-28T12:29:12;15.70;99.90
2435;DHT22;1228;51.022;6.764;2024-02-28T12:31:37;15.80;99.90
2435;DHT22;1228;51.022;6.764;2024-02-28T12:34:03;15.90;99.90
2435;DHT22;1228;51.022;6.764;2024-02-28T12:36:29;15.80;99.10
2435;DHT22;1228;51.022;6.764;2024-02-28T12:38:56;15.90;99.20
2435;DHT22;1228;51.022;6.764;2024-02-28T12:41:23;15.60;98.70
2435;DHT22;1228;51.022;6.764;2024-02-28T12:43:48;15.60;99.90
2435;DHT22;1228;51.022;6.764;2024-02-28T12:46:15;15.60;99.90
2435;DHT22;1228;51.022;6.764;2024-02-28T12:48:41;15.70;99.30
2435;DHT22;1228;51.022;6.764;2024-02-28T12:51:09;15.80;99.30
2435;DHT22;1228;51.022;6.764;2024-02-28T12:53:36;16.10;99.90
2435;DHT22;1228;51.022;6.764;2024-02-28T12:56:01;16.10;96.40
2435;DHT22;1228;51.022;6.764;2024-02-28T12:58:27;15.80;96.10
2435;DHT22;1228;51.022;6.764;2024-02-28T13:00:53;15.60;97.60
2435;DHT22;1228;51.022;6.764;2024-02-28T13:03:18;15.50;98.20
2435;DHT22;1228;51.022;6.764;2024-02-28T13:05:44;15.80;99.40
2435;DHT22;1228;51.022;6.764;2024-02-28T13:08:10;16.00;98.10
2435;DHT22;1228;51.022;6.764;2024-02-28T13:10:36;16.10;96.40
2435;DHT22;1228;51.022;6.764;2024-02-28T13:13:05;16.30;95.50
2435;DHT22;1228;51.022;6.764;2024-02-28T13:15:31;16.20;94.90
2435;DHT22;1228;51.022;6.764;2024-02-28T13:17:57;16.10;96.70
2435;DHT22;1228;51.022;6.764;2024-02-28T13:20:23;16.00;93.60
2435;DHT22;1228;51.022;6.764;2024-02-28T13:22:48;15.70;92.30
2435;DHT22;1228;51.022;6.764;2024-02-28T13:25:14;15.40;94.20
2435;DHT22;1228;51.022;6.764;2024-02-28T13:27:40;15.40;96.20
2435;DHT22;1228;51.022;6.764;2024-02-28T13:30:06;15.50;95.90
2435;DHT22;1228;51.022;6.764;2024-02-28T13:32:32;15.50;95.30
2435;DHT22;1228;51.022;6.764;2024-02-28T13:34:58;15.40;95.00
2435;DHT22;1228;51.022;6.764;2024-02-28T13:37:25;15.30;93.80
2435;DHT22;1228;51.022;6.764;2024-02-28T13:39:50;15.30;94.40
2435;DHT22;1228;51.022;6.764;2024-02-28T13:42:17;14.90;94.80
2435;DHT22;1228;51.022;6.764;2024-02-28T13:44:46;14.80;95.50
2435;DHT22;1228;51.022;6.764;2024-02-28T13:47:12;14.60;95.60
2435;DHT22;1228;51.022;6.764;2024-02-28T13:49:39;14.60;96.50
2435;DHT22;1228;51.022;6.764;2024-02-28T13:52:05;14.70;96.20
2435;DHT22;1228;51.022;6.764;2024-02-28T13:54:30;14.70;95.60
2435;DHT22;1228;51.022;6.764;2024-02-28T13:56:56;14.70;95.50
2435;DHT22;1228;51.022;6.764;2024-02-28T13:59:22;14.60;94.70
2435;DHT22;1228;51.022;6.764;2024-02-28T14:01:49;14.50;95.60
2435;DHT22;1228;51.022;6.764;2024-02-28T14:04:15;14.60;94.20
2435;DHT22;1228;51.022;6.764;2024-02-28T14:06:40;14.80;95.80
2435;DHT22;1228;51.022;6.764;2024-02-28T14:09:06;14.70;94.20
2435;DHT22;1228;51.022;6.764;2024-02-28T14:11:32;14.60;95.30
2435;DHT22;1228;51.022;6.764;2024-02-28T14:13:58;14.60;93.00
2435;DHT22;1228;51.022;6.764;2024-02-28T14:16:24;14.60;95.50
2435;DHT22;1228;51.022;6.764;2024-02-28T14:18:50;14.80;95.20
2435;DHT22;1228;51.022;6.764;2024-02-28T14:21:16;14.80;95.20
2435;DHT22;1228;51.022;6.764;2024-02-28T14:23:42;15.00;94.70
2435;DHT22;1228;51.022;6.764;2024-02-28T14:26:08;15.00;93.10
2435;DHT22;1228;51.022;6.764;2024-02-28T14:28:34;15.00;92.40
2435;DHT22;1228;51.022;6.764;2024-02-28T14:31:00;15.00;91.60
2435;DHT22;1228;51.022;6.764;2024-02-28T14:33:25;15.10;92.80
2435;DHT22;1228;51.022;6.764;2024-02-28T14:35:51;15.20;90.90
2435;DHT22;1228;51.022;6.764;2024-02-28T14:38:17;15.30;91.50
2435;DHT22;1228;51.022;6.764;2024-02-28T14:40:43;15.30;92.50
2435;DHT22;1228;51.022;6.764;2024-02-28T14:43:08;15.30;92.00
2435;DHT22;1228;51.022;6.764;2024-02-28T14:45:34;15.20;91.70
2435;DHT22;1228;51.022;6.764;2024-02-28T14:48:01;15.10;91.10
2435;DHT22;1228;51.022;6.764;2024-02-28T14:50:27;14.90;90.70
2435;DHT22;1228;51.022;6.764;2024-02-28T14:52:52;14.70;91.30
2435;DHT22;1228;51.022;6.764;2024-02-28T14:55:18;14.60;91.50
2435;DHT22;1228;51.022;6.764;2024-02-28T14:57:43;14.40;91.70
2435;DHT22;1228;51.022;6.764;2024-02-28T15:00:10;14.30;92.00
2435;DHT22;1228;51.022;6.764;2024-02-28T15:02:42;14.20;91.70
2435;DHT22;1228;51.022;6.764;2024-02-28T15:05:08;14.40;92.00
2435;DHT22;1228;51.022;6.764;2024-02-28T15:07:34;14.50;91.50
2435;DHT22;1228;51.022;6.764;2024-02-28T15:10:01;14.50;88.90
2435;DHT22;1228;51.022;6.764;2024-02-28T15:12:29;14.50;90.20
2435;DHT22;1228;51.022;6.764;2024-02-28T15:15:04;14.40;88.10
2435;DHT22;1228;51.022;6.764;2024-02-28T15:17:31;14.40;90.20
2435;DHT22;1228;51.022;6.764;2024-02-28T15:19:57;14.30;88.00
2435;DHT22;1228;51.022;6.764;2024-02-28T15:22:23;14.20;88.90
2435;DHT22;1228;51.022;6.764;2024-02-28T15:24:49;14.00;87.40
2435;DHT22;1228;51.022;6.764;2024-02-28T15:27:14;14.00;89.70
2435;DHT22;1228;51.022;6.764;2024-02-28T15:29:40;14.10;90.40
2435;DHT22;1228;51.022;6.764;2024-02-28T15:32:07;14.20;91.10
2435;DHT22;1228;51.022;6.764;2024-02-28T15:34:32;14.20;88.80
2435;DHT22;1228;51.022;6.764;2024-02-28T15:36:58;14.00;86.80
2435;DHT22;1228;51.022;6.764;2024-02-28T15:39:23;13.90;84.90
2435;DHT22;1228;51.022;6.764;2024-02-28T15:41:49;13.60;86.10
2435;DHT22;1228;51.022;6.764;2024-02-28T15:44:17;13.40;87.00
2435;DHT22;1228;51.022;6.764;2024-02-28T15:46:42;13.20;87.20
2435;DHT22;1228;51.022;6.764;2024-02-28T15:49:08;13.10;88.80
2435;DHT22;1228;51.022;6.764;2024-02-28T15:51:34;13.10;89.00
2435;DHT22;1228;51.022;6.764;2024-02-28T15:54:01;13.10;88.00
2435;DHT22;1228;51.022;6.764;2024-02-28T15:56:26;13.10;89.90
2435;DHT22;1228;51.022;6.764;2024-02-28T15:58:52;13.00;89.40
2435;DHT22;1228;51.022;6.764;2024-02-28T16:01:17;12.90;90.00
2435;DHT22;1228;51.022;6.764;2024-02-28T16:03:43;12.70;88.00
2435;DHT22;1228;51.022;6.764;2024-02-28T16:06:09;12.60;86.70